createdAt,value
2018-10-06T00:00:37.016Z,6.43
2018-10-06T00:03:06.232Z,6.63
2018-10-06T00:05:35.484Z,6.77
2018-10-06T00:08:04.715Z,6.37
2018-10-06T00:10:33.933Z,5.77
2018-10-06T00:13:03.164Z,6.13
2018-10-06T00:15:32.376Z,5.73
2018-10-06T00:18:01.576Z,5.43
2018-10-06T00:20:30.808Z,5.63
2018-10-06T00:23:00.004Z,5.30
2018-10-06T00:25:29.231Z,5.50
2018-10-06T00:27:58.465Z,4.97
2018-10-06T00:30:27.686Z,5.37
2018-10-06T00:32:56.973Z,5.27
2018-10-06T00:35:26.256Z,5.43
2018-10-06T00:37:55.718Z,4.90
2018-10-06T00:40:24.931Z,5.97
2018-10-06T00:42:54.152Z,5.57
2018-10-06T00:45:23.394Z,6.03
2018-10-06T00:47:52.598Z,6.03
2018-10-06T00:50:21.840Z,6.40
2018-10-06T00:52:51.056Z,6.30
2018-10-06T00:55:20.363Z,5.87
2018-10-06T00:57:49.577Z,6.67
2018-10-06T01:00:18.836Z,6.93
2018-10-06T01:02:48.070Z,7.90
2018-10-06T01:05:17.471Z,6.83
2018-10-06T01:07:46.709Z,7.23
2018-10-06T01:10:15.925Z,7.23
2018-10-06T01:12:45.141Z,6.63
2018-10-06T01:15:14.327Z,6.73
2018-10-06T01:17:43.553Z,7.00
2018-10-06T01:20:12.812Z,7.10
2018-10-06T01:22:42.076Z,6.53
2018-10-06T01:25:11.280Z,7.00
2018-10-06T01:27:40.537Z,7.40
2018-10-06T01:30:09.788Z,7.53
2018-10-06T01:32:39.008Z,7.60
2018-10-06T01:35:08.213Z,8.07
2018-10-06T01:37:45.039Z,7.30
2018-10-06T01:40:14.233Z,6.77
2018-10-06T01:42:44.228Z,7.33
2018-10-06T01:45:13.420Z,7.90
2018-10-06T01:47:42.609Z,7.23
2018-10-06T01:50:11.848Z,7.07
2018-10-06T01:52:41.046Z,5.90
2018-10-06T01:55:10.208Z,6.93
2018-10-06T01:57:39.397Z,7.23
2018-10-06T02:00:08.673Z,8.03
2018-10-06T02:02:37.857Z,8.90
2018-10-06T02:05:07.040Z,9.17
2018-10-06T02:07:36.296Z,9.00
2018-10-06T02:10:05.507Z,10.13
2018-10-06T02:12:34.696Z,8.70
2018-10-06T02:15:03.971Z,8.70
2018-10-06T02:17:33.175Z,9.20
2018-10-06T02:20:02.374Z,8.30
2018-10-06T02:22:31.592Z,8.80
2018-10-06T02:25:00.772Z,9.00
2018-10-06T02:27:29.986Z,8.40
2018-10-06T02:29:59.235Z,8.30
2018-10-06T02:32:28.473Z,9.50
2018-10-06T02:34:58.019Z,8.77
2018-10-06T02:37:27.444Z,8.40
2018-10-06T02:39:56.676Z,8.53
2018-10-06T02:42:25.903Z,8.77
2018-10-06T02:44:55.119Z,8.57
2018-10-06T02:47:24.334Z,9.10
2018-10-06T02:49:53.547Z,8.83
2018-10-06T02:52:22.898Z,9.10
2018-10-06T02:54:52.202Z,8.47
2018-10-06T02:57:21.419Z,7.80
2018-10-06T02:59:50.662Z,7.87
2018-10-06T03:02:19.884Z,7.70
2018-10-06T03:04:49.141Z,7.17
2018-10-06T03:07:18.363Z,7.30
2018-10-06T03:09:47.587Z,7.47
2018-10-06T03:12:16.788Z,7.27
2018-10-06T03:14:45.998Z,7.53
2018-10-06T03:17:15.200Z,7.80
2018-10-06T03:19:44.425Z,8.53
2018-10-06T03:22:13.727Z,7.80
2018-10-06T03:24:42.959Z,7.40
2018-10-06T03:27:12.176Z,7.33
2018-10-06T03:29:41.393Z,7.30
2018-10-06T03:32:10.595Z,7.70
2018-10-06T03:34:39.815Z,6.97
2018-10-06T03:37:09.070Z,7.70
2018-10-06T03:39:38.300Z,7.70
2018-10-06T03:42:07.560Z,7.53
2018-10-06T03:44:36.799Z,7.90
2018-10-06T03:47:06.151Z,9.27
2018-10-06T03:49:35.372Z,9.90
2018-10-06T03:52:04.583Z,11.97
2018-10-06T03:54:33.965Z,12.17
2018-10-06T03:57:03.555Z,14.13
2018-10-06T03:59:33.043Z,10.87
2018-10-06T04:02:02.477Z,11.10
2018-10-06T04:04:31.820Z,10.50
2018-10-06T04:07:01.138Z,11.07
2018-10-06T04:09:30.359Z,11.53
2018-10-06T04:11:59.582Z,11.13
2018-10-06T04:14:28.839Z,10.50
2018-10-06T04:16:58.126Z,10.73
2018-10-06T04:19:27.344Z,10.73
2018-10-06T04:21:56.643Z,10.47
2018-10-06T04:24:25.889Z,11.30
2018-10-06T04:26:55.103Z,11.37
2018-10-06T04:29:24.386Z,12.17
2018-10-06T04:31:53.607Z,12.17
2018-10-06T04:34:22.828Z,12.20
2018-10-06T04:36:52.143Z,11.73
2018-10-06T04:39:38.143Z,11.80
2018-10-06T04:42:07.555Z,10.20
2018-10-06T04:44:36.907Z,12.00
2018-10-06T04:47:06.239Z,11.00
2018-10-06T04:49:35.468Z,11.13
2018-10-06T04:52:04.770Z,11.70
2018-10-06T04:54:34.065Z,10.10
2018-10-06T04:57:03.275Z,10.57
2018-10-06T04:59:32.480Z,10.47
2018-10-06T05:02:01.680Z,11.03
2018-10-06T05:04:30.917Z,11.10
2018-10-06T05:07:00.144Z,10.60
2018-10-06T05:09:29.351Z,11.00
2018-10-06T05:11:58.549Z,10.30
2018-10-06T05:14:27.741Z,10.60
2018-10-06T05:16:56.940Z,10.53
2018-10-06T05:19:26.168Z,10.87
2018-10-06T05:21:55.407Z,11.47
2018-10-06T05:24:24.608Z,10.80
2018-10-06T05:26:53.814Z,10.30
2018-10-06T05:29:23.022Z,10.73
2018-10-06T05:31:52.256Z,11.23
2018-10-06T05:34:21.678Z,10.83
2018-10-06T05:36:51.007Z,11.37
2018-10-06T05:39:20.234Z,11.53
2018-10-06T05:41:49.469Z,11.27
2018-10-06T05:44:18.689Z,12.13
2018-10-06T05:46:47.899Z,11.67
2018-10-06T05:49:17.102Z,11.80
2018-10-06T05:51:46.324Z,11.20
2018-10-06T05:54:15.543Z,12.30
2018-10-06T05:56:44.759Z,11.77
2018-10-06T05:59:13.982Z,12.43
2018-10-06T06:01:43.187Z,12.10
2018-10-06T06:04:12.433Z,12.27
2018-10-06T06:06:41.651Z,12.40
2018-10-06T06:09:10.866Z,11.97
2018-10-06T06:11:40.123Z,12.60
2018-10-06T06:14:09.301Z,11.50
2018-10-06T06:16:38.509Z,11.87
2018-10-06T06:19:07.727Z,11.83
2018-10-06T06:21:36.961Z,12.17
2018-10-06T06:24:06.176Z,12.23
2018-10-06T06:26:35.377Z,13.50
2018-10-06T06:29:04.577Z,13.67
2018-10-06T06:31:33.819Z,13.07
2018-10-06T06:34:03.050Z,13.53
2018-10-06T06:36:32.255Z,13.57
2018-10-06T06:39:01.464Z,14.73
2018-10-06T06:41:30.781Z,13.87
2018-10-06T06:44:00.030Z,13.40
2018-10-06T06:46:29.240Z,12.67
2018-10-06T06:48:58.455Z,14.20
2018-10-06T06:51:27.679Z,13.97
2018-10-06T06:53:56.885Z,15.07
2018-10-06T06:56:26.149Z,17.80
2018-10-06T06:58:55.407Z,16.90
2018-10-06T07:01:24.677Z,18.13
2018-10-06T07:03:53.893Z,17.30
2018-10-06T07:06:23.164Z,16.97
2018-10-06T07:08:52.373Z,19.30
2018-10-06T07:11:21.584Z,18.73
2018-10-06T07:13:50.897Z,19.97
2018-10-06T07:16:20.117Z,18.73
2018-10-06T07:18:49.387Z,18.70
2018-10-06T07:21:18.603Z,18.10
2018-10-06T07:23:47.820Z,17.70
2018-10-06T07:26:17.055Z,18.30
2018-10-06T07:28:46.277Z,18.97
2018-10-06T07:31:15.468Z,18.43
2018-10-06T07:33:44.679Z,18.10
2018-10-06T07:36:13.948Z,17.73
2018-10-06T07:38:43.171Z,17.40
2018-10-06T07:41:12.449Z,17.13
2018-10-06T07:43:41.688Z,16.70
2018-10-06T07:46:10.948Z,17.37
2018-10-06T07:48:40.183Z,16.83
2018-10-06T07:51:09.407Z,17.50
2018-10-06T07:53:38.779Z,17.20
2018-10-06T07:56:08.080Z,17.07
2018-10-06T07:58:37.352Z,16.93
2018-10-06T08:01:06.612Z,15.00
2018-10-06T08:03:35.915Z,17.90
2018-10-06T08:06:05.198Z,15.90
2018-10-06T08:08:34.527Z,16.97
2018-10-06T08:11:03.756Z,17.10
2018-10-06T08:13:32.992Z,17.07
2018-10-06T08:16:02.233Z,16.87
2018-10-06T08:18:31.468Z,16.17
2018-10-06T08:21:00.708Z,15.23
2018-10-06T08:23:29.965Z,15.20
2018-10-06T08:25:59.200Z,15.47
2018-10-06T08:28:28.443Z,15.10
2018-10-06T08:30:57.668Z,15.00
2018-10-06T08:33:26.940Z,14.33
2018-10-06T08:35:56.172Z,15.50
2018-10-06T08:38:25.419Z,16.00
2018-10-06T08:40:54.615Z,15.40
2018-10-06T08:43:23.847Z,15.20
2018-10-06T08:45:53.073Z,15.87
2018-10-06T08:48:22.317Z,15.23
2018-10-06T08:50:51.531Z,15.93
2018-10-06T08:53:20.791Z,14.10
2018-10-06T08:55:50.051Z,14.30
2018-10-06T08:58:19.249Z,14.50
2018-10-06T09:00:48.475Z,12.27
2018-10-06T09:03:17.687Z,15.23
2018-10-06T09:05:46.901Z,14.23
2018-10-06T09:08:16.204Z,14.20
2018-10-06T09:10:45.452Z,14.33
2018-10-06T09:13:14.638Z,14.40
2018-10-06T09:15:43.851Z,14.63
2018-10-06T09:18:13.080Z,13.80
2018-10-06T09:20:42.346Z,14.27
2018-10-06T09:23:11.654Z,14.00
2018-10-06T09:25:40.889Z,16.17
2018-10-06T09:28:10.127Z,14.97
2018-10-06T09:30:39.309Z,14.10
2018-10-06T09:33:08.555Z,14.00
2018-10-06T09:35:37.767Z,14.57
2018-10-06T09:38:07.048Z,14.60
2018-10-06T09:40:36.243Z,17.13
2018-10-06T09:43:05.456Z,16.33
2018-10-06T09:45:34.727Z,17.27
2018-10-06T09:48:04.017Z,16.87
2018-10-06T09:50:33.224Z,15.87
2018-10-06T09:53:02.451Z,17.97
2018-10-06T09:55:31.699Z,16.83
2018-10-06T09:58:00.924Z,14.27
2018-10-06T10:00:35.354Z,16.67
2018-10-06T10:03:09.831Z,16.23
2018-10-06T10:05:44.530Z,17.87
2018-10-06T10:08:13.733Z,15.10
2018-10-06T10:10:42.933Z,16.27
2018-10-06T10:13:12.149Z,15.35
2018-10-06T10:15:41.378Z,15.95
2018-10-06T10:18:10.992Z,16.42
2018-10-06T10:20:40.088Z,14.98
2018-10-06T10:23:09.657Z,15.80
2018-10-06T10:25:39.130Z,14.45
2018-10-06T10:28:08.341Z,16.25
2018-10-06T10:30:37.557Z,14.98
2018-10-06T10:33:06.853Z,15.45
2018-10-06T10:35:36.095Z,17.50
2018-10-06T10:38:05.279Z,17.57
2018-10-06T10:40:34.520Z,16.52
2018-10-06T10:43:03.745Z,16.97
2018-10-06T10:45:32.999Z,16.15
2018-10-06T10:48:02.237Z,16.40
2018-10-06T10:50:31.536Z,14.87
2018-10-06T10:53:00.756Z,16.65
2018-10-06T10:55:30.080Z,14.23
2018-10-06T10:57:59.320Z,15.98
2018-10-06T11:00:28.655Z,13.98
2018-10-06T11:02:57.882Z,14.90
2018-10-06T11:05:27.112Z,14.63
2018-10-06T11:07:56.335Z,13.48
2018-10-06T11:10:25.587Z,13.65
2018-10-06T11:12:54.849Z,14.78
2018-10-06T11:15:24.149Z,14.33
2018-10-06T11:17:53.524Z,13.18
2018-10-06T11:20:22.763Z,13.90
2018-10-06T11:22:51.990Z,13.40
2018-10-06T11:25:21.229Z,13.38
2018-10-06T11:27:50.455Z,14.00
2018-10-06T11:30:19.761Z,14.53
2018-10-06T11:32:49.227Z,14.87
2018-10-06T11:35:18.869Z,15.43
2018-10-06T11:37:48.271Z,15.32
2018-10-06T11:40:17.474Z,16.10
2018-10-06T11:42:46.724Z,15.90
2018-10-06T11:45:16.029Z,14.23
2018-10-06T11:47:45.324Z,15.40
2018-10-06T11:50:14.631Z,16.67
2018-10-06T11:52:43.831Z,15.90
2018-10-06T11:55:13.185Z,15.88
2018-10-06T11:57:42.436Z,17.03
2018-10-06T12:00:11.865Z,18.60
2018-10-06T12:02:41.064Z,18.15
2018-10-06T12:05:10.315Z,18.30
2018-10-06T12:07:39.957Z,17.27
2018-10-06T12:10:09.691Z,16.73
2018-10-06T12:12:38.972Z,18.30
2018-10-06T12:15:08.260Z,17.42
2018-10-06T12:17:37.544Z,17.75
2018-10-06T12:20:06.837Z,13.88
2018-10-06T12:22:36.079Z,16.77
2018-10-06T12:25:05.462Z,15.65
2018-10-06T12:27:34.747Z,14.68
2018-10-06T12:30:04.012Z,15.85
2018-10-06T12:32:33.286Z,12.53
2018-10-06T12:35:02.697Z,12.95
2018-10-06T12:37:32.012Z,12.63
2018-10-06T12:40:01.309Z,12.82
2018-10-06T12:42:30.552Z,12.45
2018-10-06T12:44:59.877Z,13.90
2018-10-06T12:47:29.359Z,13.80
2018-10-06T12:49:58.631Z,14.15
2018-10-06T12:52:27.892Z,13.22
2018-10-06T12:54:57.178Z,12.53
2018-10-06T12:57:26.418Z,13.48
2018-10-06T12:59:55.735Z,11.68
2018-10-06T13:02:24.995Z,15.28
2018-10-06T13:04:54.243Z,13.48
2018-10-06T13:07:23.568Z,12.85
2018-10-06T13:09:52.892Z,14.47
2018-10-06T13:12:22.305Z,12.30
2018-10-06T13:14:51.559Z,12.10
2018-10-06T13:17:20.791Z,11.83
2018-10-06T13:19:50.036Z,11.65
2018-10-06T13:22:19.364Z,11.70
2018-10-06T13:24:48.682Z,10.58
2018-10-06T13:27:17.967Z,10.35
2018-10-06T13:29:47.271Z,10.65
2018-10-06T13:32:16.643Z,11.30
2018-10-06T13:34:45.936Z,10.45
2018-10-06T13:37:15.235Z,10.60
2018-10-06T13:39:44.553Z,10.32
2018-10-06T13:42:13.831Z,10.72
2018-10-06T13:44:43.217Z,11.20
2018-10-06T13:47:12.497Z,10.63
2018-10-06T13:49:41.832Z,10.15
2018-10-06T13:52:11.248Z,10.28
2018-10-06T13:54:40.528Z,10.82
2018-10-06T13:57:10.700Z,10.35
2018-10-06T13:59:39.973Z,12.23
2018-10-06T14:02:09.287Z,10.35
2018-10-06T14:04:38.589Z,9.87
2018-10-06T14:07:07.909Z,10.53
2018-10-06T14:09:37.165Z,10.90
2018-10-06T14:12:06.533Z,10.37
2018-10-06T14:14:35.800Z,11.33
2018-10-06T14:17:05.066Z,10.25
2018-10-06T14:19:34.348Z,11.10
2018-10-06T14:22:03.689Z,9.03
2018-10-06T14:24:32.950Z,9.30
2018-10-06T14:27:02.376Z,8.73
2018-10-06T14:29:31.630Z,10.20
2018-10-06T14:32:00.915Z,10.10
2018-10-06T14:34:30.164Z,9.37
2018-10-06T14:36:59.471Z,7.97
2018-10-06T14:39:28.761Z,9.27
2018-10-06T14:41:58.153Z,9.37
2018-10-06T14:44:27.519Z,9.15
2018-10-06T14:46:56.700Z,9.77
2018-10-06T14:49:25.916Z,9.05
2018-10-06T14:51:55.180Z,8.75
2018-10-06T14:54:24.418Z,8.38
2018-10-06T14:56:53.698Z,7.93
2018-10-06T14:59:22.880Z,9.10
2018-10-06T15:01:52.151Z,8.60
2018-10-06T15:04:21.461Z,8.93
2018-10-06T15:06:50.718Z,8.80
2018-10-06T15:09:20.072Z,8.80
2018-10-06T15:11:49.344Z,8.83
2018-10-06T15:14:18.640Z,8.50
2018-10-06T15:16:47.843Z,9.20
2018-10-06T15:19:17.085Z,8.23
2018-10-06T15:21:46.401Z,7.00
2018-10-06T15:24:15.633Z,7.10
2018-10-06T15:26:44.836Z,6.00
2018-10-06T15:29:14.083Z,6.00
2018-10-06T15:31:43.328Z,6.70
2018-10-06T15:34:12.653Z,6.07
2018-10-06T15:36:41.959Z,6.47
2018-10-06T15:39:11.219Z,5.00
2018-10-06T15:41:40.437Z,5.40
2018-10-06T15:44:09.681Z,6.60
2018-10-06T15:46:39.145Z,6.00
2018-10-06T15:49:08.475Z,5.43
2018-10-06T15:51:37.682Z,5.60
2018-10-06T15:54:07.147Z,5.20
2018-10-06T15:56:36.435Z,5.37
2018-10-06T15:59:05.732Z,4.40
2018-10-06T16:01:34.973Z,4.70
2018-10-06T16:04:04.203Z,4.37
2018-10-06T16:06:33.488Z,4.80
2018-10-06T16:09:02.716Z,4.33
2018-10-06T16:11:31.928Z,4.60
2018-10-06T16:14:01.164Z,4.87
2018-10-06T16:16:30.372Z,4.97
2018-10-06T16:18:59.600Z,5.00
2018-10-06T16:21:28.867Z,5.20
2018-10-06T16:23:58.054Z,5.70
2018-10-06T16:26:27.294Z,5.63
2018-10-06T16:28:56.521Z,6.40
2018-10-06T16:31:25.723Z,6.00
2018-10-06T16:33:55.002Z,6.07
2018-10-06T16:36:24.281Z,5.43
2018-10-06T16:38:53.537Z,5.97
2018-10-06T16:41:22.767Z,6.40
2018-10-06T16:43:51.922Z,5.60
2018-10-06T16:46:21.204Z,5.57
2018-10-06T16:48:50.412Z,5.67
2018-10-06T16:51:19.629Z,5.70
2018-10-06T16:53:48.826Z,6.57
2018-10-06T16:56:18.431Z,6.53
2018-10-06T16:58:47.652Z,6.03
2018-10-06T17:01:17.094Z,6.20
2018-10-06T17:03:46.372Z,6.70
2018-10-06T17:06:15.748Z,6.57
2018-10-06T17:08:45.105Z,5.77
2018-10-06T17:11:14.514Z,6.00
2018-10-06T17:13:43.825Z,6.33
2018-10-06T17:16:13.039Z,6.50
2018-10-06T17:18:42.340Z,5.93
2018-10-06T17:21:11.535Z,6.30
2018-10-06T17:23:40.742Z,5.53
2018-10-06T17:26:09.958Z,6.30
2018-10-06T17:28:39.169Z,6.03
2018-10-06T17:31:08.484Z,6.47
2018-10-06T17:33:37.670Z,5.90
2018-10-06T17:36:06.924Z,6.33
2018-10-06T17:38:36.291Z,5.87
2018-10-06T17:41:05.551Z,6.73
2018-10-06T17:43:34.839Z,7.10
2018-10-06T17:46:04.153Z,6.90
2018-10-06T17:48:33.405Z,6.87
2018-10-06T17:51:02.654Z,6.87
2018-10-06T17:53:31.971Z,6.40
2018-10-06T17:56:01.235Z,6.57
2018-10-06T17:58:30.482Z,6.60
2018-10-06T18:00:59.725Z,6.20
2018-10-06T18:03:28.957Z,6.50
2018-10-06T18:05:58.271Z,7.07
2018-10-06T18:08:27.627Z,6.90
2018-10-06T18:10:56.872Z,8.30
2018-10-06T18:13:26.110Z,7.53
2018-10-06T18:15:55.425Z,8.03
2018-10-06T18:18:24.820Z,6.50
2018-10-06T18:20:54.251Z,6.43
2018-10-06T18:23:23.470Z,7.60
2018-10-06T18:25:52.751Z,7.23
2018-10-06T18:28:21.971Z,8.63
2018-10-06T18:30:51.235Z,8.37
2018-10-06T18:33:20.485Z,8.10
2018-10-06T18:35:49.809Z,8.23
2018-10-06T18:38:19.043Z,8.33
2018-10-06T18:40:48.276Z,9.20
2018-10-06T18:43:17.554Z,8.70
2018-10-06T18:45:46.776Z,9.17
2018-10-06T18:48:16.056Z,9.80
2018-10-06T18:50:45.269Z,9.93
2018-10-06T18:53:14.661Z,9.13
2018-10-06T18:55:44.037Z,10.37
2018-10-06T18:58:13.263Z,9.50
2018-10-06T19:00:42.634Z,9.50
2018-10-06T19:03:12.015Z,9.17
2018-10-06T19:05:41.167Z,9.17
2018-10-06T19:08:10.428Z,9.47
2018-10-06T19:10:39.728Z,9.30
2018-10-06T19:13:09.007Z,9.47
2018-10-06T19:15:38.349Z,10.60
2018-10-06T19:18:07.546Z,10.37
2018-10-06T19:20:36.803Z,8.97
2018-10-06T19:23:06.042Z,10.70
2018-10-06T19:25:35.339Z,9.97
2018-10-06T19:28:04.605Z,9.33
2018-10-06T19:30:33.820Z,9.97
2018-10-06T19:33:03.068Z,11.03
2018-10-06T19:35:32.319Z,10.27
2018-10-06T19:38:01.588Z,9.83
2018-10-06T19:40:30.863Z,11.97
2018-10-06T19:43:00.153Z,9.80
2018-10-06T19:45:29.443Z,9.60
2018-10-06T19:47:58.741Z,9.77
2018-10-06T19:50:27.965Z,10.37
2018-10-06T19:52:57.188Z,10.70
2018-10-06T19:55:26.447Z,9.97
2018-10-06T19:57:55.712Z,9.30
2018-10-06T20:00:25.034Z,10.13
2018-10-06T20:02:54.259Z,11.73
2018-10-06T20:05:23.572Z,10.17
2018-10-06T20:07:52.843Z,10.43
2018-10-06T20:10:22.071Z,10.20
2018-10-06T20:12:51.295Z,11.77
2018-10-06T20:15:20.562Z,13.23
2018-10-06T20:17:49.780Z,12.00
2018-10-06T20:20:19.004Z,11.13
2018-10-06T20:22:48.218Z,12.40
2018-10-06T20:25:17.436Z,11.10
2018-10-06T20:27:46.689Z,11.40
2018-10-06T20:30:15.914Z,10.57
2018-10-06T20:32:45.154Z,11.33
2018-10-06T20:35:14.386Z,11.00
2018-10-06T20:37:43.786Z,11.93
2018-10-06T20:40:13.091Z,10.63
2018-10-06T20:42:42.311Z,10.97
2018-10-06T20:45:11.539Z,11.30
2018-10-06T20:47:40.760Z,11.73
2018-10-06T20:50:09.982Z,11.37
2018-10-06T20:52:39.213Z,12.37
2018-10-06T20:55:08.478Z,11.07
2018-10-06T20:57:37.707Z,11.57
2018-10-06T21:00:08.156Z,11.50
2018-10-06T21:02:37.382Z,10.40
2018-10-06T21:05:06.627Z,11.63
2018-10-06T21:07:35.867Z,10.13
2018-10-06T21:10:05.108Z,10.60
2018-10-06T21:12:34.359Z,10.40
2018-10-06T21:15:03.654Z,10.83
2018-10-06T21:17:32.915Z,12.43
2018-10-06T21:20:02.156Z,14.03
2018-10-06T21:22:31.487Z,14.13
2018-10-06T21:25:00.703Z,14.33
2018-10-06T21:27:29.926Z,12.80
2018-10-06T21:29:59.159Z,12.37
2018-10-06T21:32:28.383Z,11.77
2018-10-06T21:34:57.596Z,13.13
2018-10-06T21:37:26.838Z,11.90
2018-10-06T21:39:56.090Z,11.50
2018-10-06T21:42:25.404Z,11.70
2018-10-06T21:44:54.623Z,12.17
2018-10-06T21:47:23.841Z,11.07
2018-10-06T21:49:53.092Z,12.47
2018-10-06T21:52:22.365Z,12.30
2018-10-06T21:54:51.567Z,13.27
2018-10-06T21:57:20.799Z,14.10
2018-10-06T21:59:50.024Z,13.43
2018-10-06T22:02:19.260Z,14.60
2018-10-06T22:04:48.529Z,13.03
2018-10-06T22:07:17.728Z,12.47
2018-10-06T22:09:46.935Z,13.00
2018-10-06T22:12:16.175Z,11.50
2018-10-06T22:14:45.405Z,11.17
2018-10-06T22:17:14.640Z,9.87
2018-10-06T22:19:43.874Z,11.07
2018-10-06T22:22:13.102Z,11.17
2018-10-06T22:24:42.339Z,10.67
2018-10-06T22:27:11.631Z,9.27
2018-10-06T22:29:40.857Z,10.70
2018-10-06T22:32:10.072Z,9.40
2018-10-06T22:34:39.304Z,10.00
2018-10-06T22:37:08.554Z,10.27
2018-10-06T22:39:37.808Z,10.23
2018-10-06T22:42:07.132Z,10.60
2018-10-06T22:44:36.433Z,9.97
2018-10-06T22:47:05.685Z,10.40
2018-10-06T22:49:34.995Z,10.10
2018-10-06T22:52:04.278Z,9.77
2018-10-06T22:54:33.583Z,9.50
2018-10-06T22:57:02.928Z,9.53
2018-10-06T22:59:32.137Z,9.33
2018-10-06T23:02:01.441Z,8.63
2018-10-06T23:04:30.695Z,9.00
2018-10-06T23:06:59.956Z,8.87
2018-10-06T23:09:29.227Z,8.50
2018-10-06T23:11:58.523Z,9.73
2018-10-06T23:14:27.764Z,9.43
2018-10-06T23:16:57.051Z,8.60
2018-10-06T23:19:26.354Z,9.07
2018-10-06T23:21:55.656Z,10.10
2018-10-06T23:24:24.921Z,8.97
2018-10-06T23:26:54.371Z,7.90
2018-10-06T23:29:23.895Z,9.53
2018-10-06T23:31:53.177Z,8.33
2018-10-06T23:34:22.457Z,9.40
2018-10-06T23:36:51.729Z,9.97
2018-10-06T23:39:21.047Z,9.30
2018-10-06T23:41:50.382Z,10.37
2018-10-06T23:44:19.653Z,9.47
2018-10-06T23:46:48.952Z,10.13
2018-10-06T23:49:18.194Z,9.80
2018-10-06T23:51:47.437Z,9.03
2018-10-06T23:54:16.687Z,9.37
2018-10-06T23:56:45.973Z,8.47
2018-10-06T23:59:15.219Z,8.70
